Time;durP1;ratioP1;P1;durP2;ratioP2;P2;SDS_P1;SDS_P2;PMS_P1;PMS_P2;Temp;Humidity;BMP_temperature;BMP_pressure;BME280_temperature;BME280_humidity;BME280_pressure;Samples;Min_cycle;Max_cycle;Signal;HPM_P1;HPM_P2
2022/05/03 00:00:24;;;;;;;5.00;3.93;;;9.70;99.90;;;;;;5022885;28;20669;-85
2022/05/03 00:03:24;;;;;;;5.60;3.93;;;9.70;99.90;;;;;;5022380;28;20169;-85
2022/05/03 00:06:08;;;;;;;5.07;3.80;;;9.60;99.90;;;;;;5015387;28;20265;-84
2022/05/03 00:08:38;;;;;;;6.17;3.87;;;9.70;99.90;;;;;;5022005;28;20197;-85
2022/05/03 00:11:41;;;;;;;5.93;3.90;;;9.60;99.90;;;;;;5022272;28;20220;-85
2022/05/03 00:14:37;;;;;;;7.20;4.03;;;9.70;99.90;;;;;;5029590;28;20641;-84
2022/05/03 00:17:04;;;;;;;7.40;4.00;;;9.40;99.90;;;;;;5025116;28;20211;-85
2022/05/03 00:19:30;;;;;;;5.73;3.77;;;9.50;99.90;;;;;;5034616;28;20179;-85
2022/05/03 00:21:58;;;;;;;6.80;4.43;;;9.40;99.90;;;;;;5023543;28;20180;-85
2022/05/03 00:24:24;;;;;;;6.90;4.53;;;9.20;99.90;;;;;;5026870;28;20199;-85
2022/05/03 00:26:51;;;;;;;5.77;3.80;;;9.30;99.90;;;;;;5024432;28;20199;-84
2022/05/03 00:29:17;;;;;;;8.73;4.30;;;9.30;99.90;;;;;;5033294;28;20233;-85
2022/05/03 00:31:44;;;;;;;7.03;4.73;;;9.30;99.90;;;;;;5020676;28;20170;-84
2022/05/03 00:34:12;;;;;;;9.10;4.47;;;9.30;99.90;;;;;;5031597;28;20198;-85
2022/05/03 00:36:37;;;;;;;6.77;4.03;;;9.30;99.90;;;;;;5029432;28;20199;-84
2022/05/03 00:39:03;;;;;;;6.53;3.90;;;9.20;99.90;;;;;;5023450;28;20183;-84
2022/05/03 00:41:48;;;;;;;6.10;3.43;;;9.20;99.90;;;;;;5038427;28;20185;-84
2022/05/03 00:45:01;;;;;;;6.50;4.00;;;9.10;99.90;;;;;;4999815;28;20165;-84
2022/05/03 00:47:32;;;;;;;9.23;4.77;;;9.20;99.90;;;;;;5007498;28;20207;-84
2022/05/03 00:50:00;;;;;;;5.40;4.10;;;9.10;99.90;;;;;;5015348;28;20200;-84
2022/05/03 00:52:40;;;;;;;19.43;4.50;;;9.00;99.90;;;;;;5019362;28;20173;-85
2022/05/03 00:55:18;;;;;;;7.73;4.23;;;9.00;99.90;;;;;;5024950;28;20712;-84
2022/05/03 00:58:04;;;;;;;7.83;4.30;;;8.90;99.90;;;;;;5035331;28;20193;-83
2022/05/03 01:00:34;;;;;;;8.73;4.60;;;8.90;99.90;;;;;;5020325;28;20185;-85
2022/05/03 01:03:15;;;;;;;10.03;4.67;;;8.80;99.90;;;;;;5025944;28;20266;-84
2022/05/03 01:06:23;;;;;;;8.10;4.90;;;8.80;99.90;;;;;;5011187;28;20177;-84
2022/05/03 01:09:06;;;;;;;6.73;4.50;;;8.70;99.90;;;;;;5021620;28;20667;-85
2022/05/03 01:11:34;;;;;;;8.00;4.73;;;8.70;99.90;;;;;;5027719;28;20162;-84
2022/05/03 01:14:27;;;;;;;7.47;5.13;;;8.60;99.90;;;;;;5021758;28;20167;-85
2022/05/03 01:17:05;;;;;;;8.57;5.00;;;8.70;99.90;;;;;;5018558;28;20193;-85
2022/05/03 01:19:46;;;;;;;9.67;5.13;;;8.70;99.90;;;;;;5019512;28;20179;-85
2022/05/03 01:22:42;;;;;;;8.90;5.17;;;8.70;99.90;;;;;;5034547;28;20715;-85
2022/05/03 01:25:43;;;;;;;7.50;4.83;;;8.70;99.90;;;;;;5034309;28;20197;-84
2022/05/03 01:28:15;;;;;;;11.13;5.27;;;8.70;99.90;;;;;;5036549;28;20251;-85
2022/05/03 01:30:47;;;;;;;10.03;5.63;;;8.60;99.90;;;;;;5024221;28;20184;-86
2022/05/03 01:33:18;;;;;;;10.87;5.60;;;8.50;99.90;;;;;;5048017;28;20242;-85
2022/05/03 01:35:50;;;;;;;7.30;5.07;;;8.40;99.90;;;;;;5024715;28;20216;-85
2022/05/03 01:38:22;;;;;;;7.67;4.83;;;8.50;99.90;;;;;;5036686;28;20172;-85
2022/05/03 01:41:23;;;;;;;8.67;5.13;;;8.60;99.90;;;;;;5031907;28;20267;-85
2022/05/03 01:44:15;;;;;;;12.77;5.37;;;8.60;99.90;;;;;;5030270;28;20197;-85
2022/05/03 01:46:53;;;;;;;11.93;5.57;;;8.50;99.90;;;;;;5070203;28;20549;-81
2022/05/03 01:52:42;;;;;;;8.63;4.90;;;8.60;99.90;;;;;;5061885;28;20206;-82
2022/05/03 01:55:40;;;;;;;8.27;5.10;;;8.50;99.90;;;;;;5050030;28;20657;-83
2022/05/03 01:58:30;;;;;;;8.67;5.33;;;8.30;99.90;;;;;;5050126;28;20182;-84
2022/05/03 02:01:05;;;;;;;7.97;5.53;;;8.20;99.90;;;;;;5072796;22;20232;-85
2022/05/03 02:03:37;;;;;;;9.70;5.23;;;8.20;99.90;;;;;;5044846;28;20266;-85
2022/05/03 02:06:08;;;;;;;10.53;5.70;;;8.10;99.90;;;;;;5068872;28;20259;-85
2022/05/03 02:09:00;;;;;;;9.07;5.30;;;8.10;99.90;;;;;;5051609;28;20180;-85
2022/05/03 02:11:26;;;;;;;9.37;5.80;;;8.20;99.90;;;;;;5051592;28;20169;-85
2022/05/03 02:17:11;;;;;;;8.20;5.07;;;8.10;99.90;;;;;;5089555;28;20250;-84
2022/05/03 02:20:11;;;;;;;9.57;4.60;;;8.10;99.90;;;;;;5065106;28;20181;-86
2022/05/03 02:23:10;;;;;;;7.27;5.03;;;8.10;99.90;;;;;;5044108;28;20177;-86
2022/05/03 02:25:49;;;;;;;9.40;5.23;;;8.00;99.90;;;;;;5062932;28;20180;-85
2022/05/03 02:28:52;;;;;;;8.83;4.97;;;7.90;99.90;;;;;;5064689;28;20189;-85
2022/05/03 02:31:31;;;;;;;10.53;4.80;;;7.90;99.90;;;;;;5049211;28;20230;-85
2022/05/03 02:34:22;;;;;;;12.97;4.67;;;7.90;99.90;;;;;;5054870;28;20651;-85
2022/05/03 02:37:13;;;;;;;6.37;4.47;;;7.90;99.90;;;;;;5066774;28;20194;-85
2022/05/03 02:39:57;;;;;;;6.33;3.90;;;7.90;99.90;;;;;;5031552;28;20173;-85
2022/05/03 02:42:25;;;;;;;7.53;4.67;;;7.80;99.90;;;;;;5071278;28;20206;-84
2022/05/03 02:44:54;;;;;;;6.37;4.50;;;8.00;99.90;;;;;;5069751;28;20581;-85
2022/05/03 02:48:01;;;;;;;9.77;5.13;;;7.90;99.90;;;;;;5064212;28;20188;-84
2022/05/03 02:50:49;;;;;;;6.73;4.47;;;7.70;99.90;;;;;;5071752;28;20662;-85
2022/05/03 02:53:30;;;;;;;6.07;4.70;;;7.80;99.90;;;;;;5058295;28;20270;-85
2022/05/03 02:56:06;;;;;;;7.90;4.90;;;7.70;99.90;;;;;;5040299;28;20207;-82
2022/05/03 02:58:54;;;;;;;7.30;4.90;;;7.80;99.90;;;;;;5039562;28;20210;-83
2022/05/03 03:01:49;;;;;;;6.53;4.20;;;7.60;99.90;;;;;;5042485;28;20649;-82
2022/05/03 03:04:24;;;;;;;8.30;4.80;;;7.50;99.90;;;;;;5050782;28;20170;-82
2022/05/03 03:06:54;;;;;;;10.00;5.13;;;7.70;99.90;;;;;;5042604;28;20199;-82
2022/05/03 03:09:47;;;;;;;8.37;4.47;;;7.60;99.90;;;;;;5053734;28;20583;-82
2022/05/03 03:12:21;;;;;;;6.97;4.90;;;7.50;99.90;;;;;;5033177;28;20190;-82
2022/05/03 03:14:47;;;;;;;6.90;4.60;;;7.40;99.90;;;;;;5054229;28;20230;-82
2022/05/03 03:17:22;;;;;;;9.20;4.40;;;7.30;99.90;;;;;;5057352;28;20199;-82
2022/05/03 03:19:59;;;;;;;8.03;4.60;;;7.20;99.90;;;;;;5057459;28;20171;-82
2022/05/03 03:22:30;;;;;;;8.87;4.93;;;7.30;99.90;;;;;;5046599;28;20174;-82
2022/05/03 03:24:58;;;;;;;7.17;4.63;;;7.30;99.90;;;;;;5044722;28;20196;-82
2022/05/03 03:27:26;;;;;;;6.83;4.60;;;7.40;99.90;;;;;;5067818;28;20254;-82
2022/05/03 03:29:56;;;;;;;8.20;5.00;;;7.30;99.90;;;;;;5038442;28;20175;-83
2022/05/03 03:32:25;;;;;;;8.07;4.67;;;7.30;99.90;;;;;;5046373;28;20179;-82
2022/05/03 03:34:54;;;;;;;7.83;4.50;;;7.30;99.90;;;;;;5037615;28;20178;-83
2022/05/03 03:37:23;;;;;;;6.73;4.40;;;7.30;99.90;;;;;;5038160;28;20686;-82
2022/05/03 03:39:49;;;;;;;7.53;4.50;;;7.20;99.90;;;;;;5048438;28;20179;-83
2022/05/03 03:42:15;;;;;;;8.23;4.50;;;7.20;99.90;;;;;;5043186;28;20173;-83
2022/05/03 03:44:41;;;;;;;8.00;4.63;;;7.10;99.90;;;;;;5053872;28;20179;-83
2022/05/03 03:47:07;;;;;;;6.90;4.90;;;7.10;99.90;;;;;;5059261;28;20194;-82
2022/05/03 03:49:34;;;;;;;8.17;5.13;;;7.20;99.90;;;;;;5038435;28;20278;-82
2022/05/03 03:52:00;;;;;;;10.10;5.13;;;7.00;99.90;;;;;;5039380;28;20182;-83
2022/05/03 03:54:26;;;;;;;9.83;4.47;;;7.10;99.90;;;;;;5043227;28;20527;-83
2022/05/03 03:56:54;;;;;;;6.93;4.50;;;7.10;99.90;;;;;;5036975;28;20199;-82
2022/05/03 03:59:20;;;;;;;9.30;5.30;;;7.10;99.90;;;;;;5046080;28;20196;-82
2022/05/03 04:01:49;;;;;;;7.47;4.47;;;7.10;99.90;;;;;;5052994;28;20165;-82
2022/05/03 04:04:16;;;;;;;8.20;4.50;;;7.00;99.90;;;;;;5052556;28;20172;-83
2022/05/03 04:06:42;;;;;;;8.63;4.90;;;6.80;99.90;;;;;;5057534;28;20207;-82
2022/05/03 04:09:08;;;;;;;11.43;4.93;;;6.70;99.90;;;;;;5056576;28;20545;-82
2022/05/03 04:11:45;;;;;;;6.73;4.40;;;6.70;99.90;;;;;;5057328;28;20543;-82
2022/05/03 04:14:11;;;;;;;10.00;4.70;;;6.70;99.90;;;;;;5058041;28;20175;-82
2022/05/03 04:16:37;;;;;;;11.57;5.00;;;6.80;99.90;;;;;;5057956;28;20254;-82
2022/05/03 04:19:03;;;;;;;8.80;5.30;;;6.70;99.90;;;;;;5045785;28;20586;-82
2022/05/03 04:21:29;;;;;;;8.33;4.83;;;6.60;99.90;;;;;;5037668;28;20177;-82
2022/05/03 04:23:54;;;;;;;6.87;4.73;;;6.60;99.90;;;;;;5037591;28;20183;-82
2022/05/03 04:26:20;;;;;;;7.63;5.00;;;6.70;99.90;;;;;;5038044;28;20793;-82
2022/05/03 04:28:46;;;;;;;8.70;4.60;;;6.70;99.90;;;;;;5038022;28;20540;-82
2022/05/03 04:31:11;;;;;;;7.87;4.80;;;6.70;99.90;;;;;;5038401;28;20167;-82
2022/05/03 04:33:37;;;;;;;10.33;4.97;;;6.90;99.90;;;;;;5039230;28;20171;-82
2022/05/03 04:36:04;;;;;;;6.87;5.07;;;6.80;99.90;;;;;;5040792;28;20181;-83
2022/05/03 04:38:30;;;;;;;8.37;5.03;;;6.80;99.90;;;;;;5048830;28;20224;-82
2022/05/03 04:41:00;;;;;;;10.70;6.17;;;6.90;99.90;;;;;;5057145;28;20184;-83
2022/05/03 04:43:26;;;;;;;11.67;5.40;;;6.90;99.90;;;;;;5045795;28;20177;-84
2022/05/03 04:45:52;;;;;;;11.20;5.80;;;7.00;99.90;;;;;;5055476;28;20221;-83
2022/05/03 04:48:18;;;;;;;7.97;5.17;;;7.00;99.90;;;;;;5046181;28;20198;-87
2022/05/03 04:50:43;;;;;;;9.67;5.63;;;6.90;99.90;;;;;;5046376;28;20239;-86
2022/05/03 04:53:09;;;;;;;13.67;5.60;;;6.90;99.90;;;;;;5049448;28;20270;-85
2022/05/03 04:55:41;;;;;;;11.10;5.50;;;7.00;99.90;;;;;;5047888;28;20649;-85
2022/05/03 04:58:07;;;;;;;11.83;4.77;;;7.10;99.90;;;;;;5041184;28;20196;-86
2022/05/03 05:00:33;;;;;;;9.07;5.03;;;7.50;99.90;;;;;;5046133;28;20187;-87
2022/05/03 05:02:59;;;;;;;12.70;5.07;;;7.60;99.90;;;;;;5044796;28;20169;-86
2022/05/03 05:05:25;;;;;;;9.93;4.63;;;7.60;99.90;;;;;;5054313;28;20213;-85
2022/05/03 05:07:50;;;;;;;8.20;4.90;;;7.60;99.90;;;;;;5051432;28;20217;-85
2022/05/03 05:10:26;;;;;;;8.27;5.30;;;7.70;99.90;;;;;;5039276;28;20584;-86
2022/05/03 05:12:56;;;;;;;11.60;4.80;;;7.60;99.90;;;;;;5048558;28;20169;-85
2022/05/03 05:15:25;;;;;;;10.10;5.10;;;7.80;99.90;;;;;;5043447;28;20210;-85
2022/05/03 05:17:52;;;;;;;14.93;5.37;;;7.80;99.90;;;;;;5067116;28;20215;-85
2022/05/03 05:20:19;;;;;;;11.93;5.10;;;7.80;99.90;;;;;;5040330;28;20218;-85
2022/05/03 05:22:45;;;;;;;10.93;4.93;;;7.90;99.90;;;;;;5047555;28;20641;-86
2022/05/03 05:25:11;;;;;;;9.43;5.70;;;8.10;99.90;;;;;;5036747;28;20189;-85
2022/05/03 05:27:37;;;;;;;8.60;4.90;;;8.30;99.90;;;;;;5037651;28;20742;-85
2022/05/03 05:30:06;;;;;;;8.90;5.17;;;8.40;99.90;;;;;;5054357;28;20172;-86
2022/05/03 05:32:36;;;;;;;8.43;4.50;;;8.60;99.90;;;;;;5044367;28;20194;-85
2022/05/03 05:35:04;;;;;;;12.20;5.00;;;8.50;99.90;;;;;;5047013;28;20272;-85
2022/05/03 05:37:30;;;;;;;12.80;5.23;;;8.50;99.90;;;;;;5044910;28;20203;-85
2022/05/03 05:39:56;;;;;;;5.97;4.27;;;8.70;99.90;;;;;;5044771;28;20174;-85
2022/05/03 05:42:25;;;;;;;7.87;4.87;;;8.90;99.90;;;;;;5045344;28;20643;-86
2022/05/03 05:44:51;;;;;;;13.20;4.73;;;8.90;99.90;;;;;;5050622;28;20188;-86
2022/05/03 05:47:18;;;;;;;7.63;4.60;;;9.00;99.90;;;;;;5047256;28;20239;-86
2022/05/03 05:49:43;;;;;;;5.17;3.93;;;9.10;99.90;;;;;;5046890;28;20305;-87
2022/05/03 05:54:53;;;;;;;9.03;4.60;;;9.70;99.90;;;;;;5057667;28;20242;-87
2022/05/03 05:57:20;;;;;;;6.20;3.80;;;9.70;99.90;;;;;;5041422;28;20211;-87
2022/05/03 05:59:46;;;;;;;8.20;4.10;;;10.10;99.90;;;;;;5038093;28;20190;-86
2022/05/03 06:02:11;;;;;;;10.33;4.10;;;10.50;99.90;;;;;;5039871;28;20185;-87
2022/05/03 06:04:37;;;;;;;10.80;3.77;;;10.60;99.90;;;;;;5040130;28;20284;-87
2022/05/03 06:07:03;;;;;;;5.70;3.70;;;10.80;99.90;;;;;;5043482;28;20234;-87
2022/05/03 06:09:29;;;;;;;5.80;3.60;;;11.20;98.80;;;;;;5051319;28;20165;-86
2022/05/03 06:11:54;;;;;;;4.27;3.57;;;11.00;98.80;;;;;;5055581;28;20168;-85
2022/05/03 06:14:20;;;;;;;6.03;3.60;;;11.60;98.60;;;;;;5056639;28;20219;-88
2022/05/03 06:16:57;;;;;;;6.47;3.50;;;11.70;98.50;;;;;;5055005;28;20734;-86
2022/05/03 06:19:24;;;;;;;9.90;3.33;;;11.90;97.90;;;;;;5054522;28;20168;-85
2022/05/03 06:21:50;;;;;;;4.43;3.60;;;12.20;97.00;;;;;;5054777;28;20519;-85
2022/05/03 06:24:16;;;;;;;6.87;3.03;;;12.50;96.30;;;;;;5054883;28;20196;-86
2022/05/03 06:26:42;;;;;;;3.83;3.40;;;12.50;95.80;;;;;;5054144;28;20204;-84
2022/05/03 06:29:09;;;;;;;5.67;3.10;;;12.60;95.10;;;;;;5055144;28;20169;-83
2022/05/03 06:31:43;;;;;;;3.57;2.53;;;13.20;94.70;;;;;;5054983;28;20261;-85
2022/05/03 06:34:10;;;;;;;5.77;2.77;;;13.60;93.60;;;;;;5058990;28;20200;-85
2022/05/03 06:36:36;;;;;;;3.40;2.73;;;13.40;91.90;;;;;;5057935;28;20199;-85
2022/05/03 06:39:06;;;;;;;5.68;2.88;;;13.20;91.70;;;;;;5058505;28;20259;-85
2022/05/03 06:41:32;;;;;;;2.83;2.47;;;13.40;91.80;;;;;;5058357;28;20172;-84
2022/05/03 06:43:58;;;;;;;3.85;2.38;;;13.50;91.60;;;;;;5058379;28;20656;-84
2022/05/03 06:46:28;;;;;;;6.70;2.42;;;13.60;90.00;;;;;;5059724;28;20212;-85
2022/05/03 06:48:54;;;;;;;2.60;2.40;;;13.80;90.60;;;;;;5059701;28;20180;-85
2022/05/03 06:51:23;;;;;;;3.80;2.38;;;14.30;89.90;;;;;;5060804;28;20168;-86
2022/05/03 06:53:49;;;;;;;3.92;2.28;;;14.20;87.80;;;;;;5058081;28;20691;-85
2022/05/03 06:56:14;;;;;;;2.50;2.20;;;14.50;87.40;;;;;;5061694;28;20204;-84
2022/05/03 06:58:40;;;;;;;2.60;2.28;;;15.00;85.50;;;;;;5058694;28;20222;-85
2022/05/03 07:01:11;;;;;;;6.00;2.70;;;14.70;85.70;;;;;;5058747;28;20610;-84
2022/05/03 07:03:38;;;;;;;2.80;2.28;;;14.70;84.60;;;;;;5058566;28;20165;-84
2022/05/03 07:06:04;;;;;;;4.25;2.20;;;14.70;83.70;;;;;;5058721;28;20195;-84
2022/05/03 07:08:31;;;;;;;3.22;2.10;;;14.50;78.70;;;;;;5059840;28;20641;-85
2022/05/03 07:10:57;;;;;;;2.33;2.13;;;15.20;80.50;;;;;;5058580;28;20177;-84
2022/05/03 07:13:24;;;;;;;3.72;1.80;;;15.10;79.50;;;;;;5059372;28;20171;-84
2022/05/03 07:15:54;;;;;;;2.13;1.98;;;15.20;77.30;;;;;;5059737;28;20183;-84
2022/05/03 07:23:49;;;;;;;5.35;1.70;;;15.50;74.70;;;;;;5072831;28;20167;-83
2022/05/03 07:26:15;;;;;;;5.07;2.00;;;16.00;77.30;;;;;;5056618;28;20204;-84
2022/05/03 07:28:40;;;;;;;2.35;1.90;;;16.30;72.50;;;;;;5056305;28;20690;-85
2022/05/03 07:31:08;;;;;;;2.05;1.80;;;15.60;72.70;;;;;;5055689;28;20172;-84
2022/05/03 07:33:34;;;;;;;1.83;1.70;;;16.20;74.40;;;;;;5056451;28;20196;-83
2022/05/03 07:36:00;;;;;;;2.72;1.77;;;16.60;71.80;;;;;;5055891;28;20207;-83
2022/05/03 07:38:25;;;;;;;2.90;1.85;;;16.90;72.50;;;;;;5055840;28;20172;-85
2022/05/03 07:40:51;;;;;;;2.85;2.15;;;16.90;74.30;;;;;;5056930;28;20184;-84
2022/05/03 07:43:17;;;;;;;5.60;1.70;;;17.20;72.10;;;;;;5056006;28;20176;-84
2022/05/03 07:45:43;;;;;;;3.17;1.73;;;17.40;70.30;;;;;;5056288;28;20219;-84
2022/05/03 07:48:08;;;;;;;3.92;2.00;;;17.30;70.80;;;;;;5056344;28;20329;-84
2022/05/03 07:50:34;;;;;;;4.65;1.90;;;17.30;71.50;;;;;;5056151;28;20184;-84
2022/05/03 07:53:00;;;;;;;3.78;1.77;;;17.10;71.80;;;;;;5055813;28;20169;-84
2022/05/03 07:55:26;;;;;;;5.03;2.15;;;17.80;70.80;;;;;;5055383;28;20656;-83
2022/05/03 07:57:52;;;;;;;3.28;2.42;;;17.60;68.40;;;;;;5056308;28;20196;-84
2022/05/03 08:00:18;;;;;;;4.50;2.17;;;17.70;69.80;;;;;;5055470;28;20193;-84
2022/05/03 08:02:43;;;;;;;3.90;2.35;;;16.90;72.10;;;;;;5074245;28;20164;-83
2022/05/03 08:05:09;;;;;;;3.47;1.80;;;17.40;70.80;;;;;;5055165;28;20330;-81
2022/05/03 08:07:35;;;;;;;7.13;1.98;;;17.30;68.70;;;;;;5055623;28;20196;-81
2022/05/03 08:10:02;;;;;;;9.10;2.08;;;17.30;71.70;;;;;;5055849;28;20164;-81
2022/05/03 08:12:28;;;;;;;4.13;1.75;;;17.60;68.60;;;;;;5056076;28;20183;-81
2022/05/03 08:14:55;;;;;;;2.45;2.10;;;18.40;71.20;;;;;;5055787;28;20169;-81
2022/05/03 08:17:20;;;;;;;2.30;2.10;;;18.20;69.90;;;;;;5056494;28;20728;-81
2022/05/03 08:19:46;;;;;;;3.20;2.00;;;17.80;70.70;;;;;;5060696;28;20451;-82
2022/05/03 08:22:12;;;;;;;3.50;2.42;;;18.40;69.10;;;;;;5061158;28;20172;-82
2022/05/03 08:24:37;;;;;;;3.95;2.40;;;18.20;68.90;;;;;;5060927;28;20198;-82
2022/05/03 08:27:04;;;;;;;4.85;2.30;;;18.40;69.10;;;;;;5061177;28;20193;-82
2022/05/03 08:29:31;;;;;;;5.57;2.42;;;18.80;70.40;;;;;;5060746;28;20553;-81
2022/05/03 08:31:58;;;;;;;3.20;2.90;;;18.40;71.20;;;;;;5060835;28;20172;-82
2022/05/03 08:34:24;;;;;;;6.85;2.42;;;18.10;69.60;;;;;;5060336;28;20271;-82
2022/05/03 08:42:18;;;;;;;6.18;2.72;;;18.20;69.60;;;;;;5077926;28;20186;-81
2022/05/03 08:44:44;;;;;;;3.58;2.50;;;17.90;72.60;;;;;;5059643;28;20606;-82
2022/05/03 08:47:10;;;;;;;4.45;2.65;;;17.70;69.70;;;;;;5060545;28;20563;-82
2022/05/03 08:49:48;;;;;;;5.75;3.15;;;17.80;69.10;;;;;;5069310;22;20192;-78
2022/05/03 08:52:16;;;;;;;2.25;2.15;;;17.20;70.00;;;;;;5016462;28;20170;-80
2022/05/03 08:54:43;;;;;;;3.33;2.20;;;18.10;69.70;;;;;;5015890;28;20174;-80
2022/05/03 08:57:09;;;;;;;5.57;2.50;;;18.40;72.80;;;;;;5015935;28;20701;-78
2022/05/03 08:59:37;;;;;;;5.30;2.60;;;18.90;71.30;;;;;;5017479;28;20178;-80
2022/05/03 09:02:03;;;;;;;3.70;2.85;;;19.20;69.20;;;;;;5016307;28;20189;-81
2022/05/03 09:04:29;;;;;;;3.05;2.75;;;18.70;69.90;;;;;;5016943;28;20178;-81
2022/05/03 09:06:55;;;;;;;3.05;2.75;;;19.00;69.30;;;;;;5016774;28;20631;-82
2022/05/03 09:09:22;;;;;;;3.50;2.90;;;18.70;68.50;;;;;;5018440;28;20708;-81
2022/05/03 09:11:53;;;;;;;3.28;2.78;;;18.40;69.40;;;;;;5016428;28;20705;-83
2022/05/03 09:14:42;;;;;;;2.65;2.45;;;19.00;67.30;;;;;;5017310;28;20235;-79
2022/05/03 09:17:08;;;;;;;2.90;2.60;;;18.70;68.10;;;;;;5017578;28;20186;-83
2022/05/03 09:19:34;;;;;;;4.53;2.50;;;18.30;68.50;;;;;;5016989;28;20579;-79
2022/05/03 09:25:01;;;;;;;4.78;2.50;;;19.70;69.40;;;;;;5035202;28;20239;-81
2022/05/03 09:27:27;;;;;;;3.60;2.70;;;19.50;70.60;;;;;;5016974;28;20674;-81
2022/05/03 09:30:20;;;;;;;8.05;2.60;;;18.90;66.50;;;;;;5017819;28;20185;-82
2022/05/03 09:32:47;;;;;;;4.45;3.13;;;19.10;68.50;;;;;;5030405;28;20264;-81
2022/05/03 09:35:35;;;;;;;6.13;2.70;;;19.60;70.10;;;;;;5015945;28;20170;-81
2022/05/03 09:38:03;;;;;;;2.75;2.50;;;18.70;66.90;;;;;;5017005;28;20193;-80
2022/05/03 09:40:35;;;;;;;3.28;2.80;;;19.80;69.70;;;;;;5018041;28;20182;-81
2022/05/03 09:43:00;;;;;;;3.38;2.60;;;18.50;67.00;;;;;;5018228;28;20228;-81
2022/05/03 09:45:26;;;;;;;6.40;2.70;;;19.00;69.60;;;;;;5017490;28;20201;-80
2022/05/03 09:47:54;;;;;;;6.07;2.72;;;19.90;69.90;;;;;;5016185;28;20556;-82
2022/05/03 09:50:42;;;;;;;3.10;2.60;;;19.90;68.90;;;;;;5033815;28;20760;-80
2022/05/03 09:53:18;;;;;;;3.30;2.60;;;20.60;66.10;;;;;;5017611;28;20216;-81
2022/05/03 09:55:47;;;;;;;6.18;2.50;;;20.40;67.80;;;;;;5017270;28;20264;-83
2022/05/03 09:58:14;;;;;;;5.18;3.15;;;20.50;67.70;;;;;;5017723;28;20217;-84
2022/05/03 10:00:42;;;;;;;2.95;2.65;;;20.60;65.30;;;;;;5017164;28;20181;-83
2022/05/03 10:03:10;;;;;;;5.32;3.20;;;19.80;66.90;;;;;;5016904;28;20177;-81
2022/05/03 10:05:37;;;;;;;3.90;2.67;;;20.40;66.20;;;;;;5016701;28;20190;-82
2022/05/03 10:08:04;;;;;;;4.75;2.83;;;21.10;65.40;;;;;;5020068;28;20190;-82
2022/05/03 10:10:31;;;;;;;5.07;2.95;;;20.90;66.30;;;;;;5020656;28;20178;-80
2022/05/03 10:12:58;;;;;;;5.13;3.03;;;21.40;66.70;;;;;;5020145;28;20181;-80
2022/05/03 10:21:28;;;;;;;6.90;3.33;;;20.90;65.70;;;;;;5040001;28;20224;-80
2022/05/03 10:24:10;;;;;;;4.70;3.35;;;20.00;66.80;;;;;;5021501;28;20177;-80
2022/05/03 10:26:54;;;;;;;4.05;3.20;;;20.90;65.00;;;;;;5023592;28;20677;-79
2022/05/03 10:29:22;;;;;;;5.43;3.60;;;21.40;67.60;;;;;;5031383;28;20243;-80
2022/05/03 10:31:54;;;;;;;5.25;3.53;;;21.60;65.60;;;;;;5026330;28;20284;-81
2022/05/03 10:34:46;;;;;;;6.70;3.55;;;21.90;66.40;;;;;;5020425;28;20572;-80
2022/05/03 10:37:43;;;;;;;4.13;3.20;;;21.00;68.30;;;;;;5019754;28;20204;-82
2022/05/03 10:40:14;;;;;;;6.63;3.22;;;21.40;68.70;;;;;;5018796;28;20182;-79
2022/05/03 10:42:41;;;;;;;9.73;3.47;;;20.80;64.90;;;;;;5020106;28;20528;-80
2022/05/03 10:45:14;;;;;;;7.65;3.40;;;20.40;67.30;;;;;;5020293;28;20206;-80
2022/05/03 10:47:49;;;;;;;3.60;3.30;;;20.30;66.60;;;;;;5019942;28;20190;-81
2022/05/03 10:50:18;;;;;;;8.15;4.15;;;20.50;68.70;;;;;;5027048;28;20267;-79
2022/05/03 10:52:56;;;;;;;4.30;3.85;;;20.80;66.50;;;;;;5026257;28;20186;-81
2022/05/03 10:55:29;;;;;;;5.93;4.07;;;20.90;64.10;;;;;;5020002;28;20170;-82
2022/05/03 10:58:25;;;;;;;4.65;3.92;;;20.20;64.10;;;;;;5038055;28;20174;-81
2022/05/03 11:01:13;;;;;;;7.95;3.78;;;22.60;63.80;;;;;;4997985;28;20185;-81
2022/05/03 11:03:54;;;;;;;7.07;4.63;;;22.20;66.00;;;;;;4997601;28;20198;-84
2022/05/03 11:06:20;;;;;;;5.18;4.35;;;21.80;66.20;;;;;;5002087;28;20210;-81
2022/05/03 11:11:44;;;;;;;8.50;5.03;;;22.30;66.60;;;;;;5019549;28;20159;-83
2022/05/03 11:14:16;;;;;;;8.25;6.13;;;22.30;67.10;;;;;;5000466;28;20446;-81
2022/05/03 11:17:00;;;;;;;5.75;4.80;;;21.40;66.20;;;;;;5020089;28;20202;-82
2022/05/03 11:19:26;;;;;;;6.43;4.45;;;21.30;67.90;;;;;;5023075;28;20174;-84
2022/05/03 11:21:51;;;;;;;8.15;5.65;;;21.10;69.80;;;;;;5021234;28;20671;-81
2022/05/03 11:24:25;;;;;;;6.95;5.20;;;21.70;67.20;;;;;;5024788;28;20317;-81
2022/05/03 11:27:01;;;;;;;5.68;4.97;;;21.30;65.20;;;;;;5025180;28;20233;-81
2022/05/03 11:29:29;;;;;;;6.88;4.90;;;20.60;69.00;;;;;;5028013;28;20265;-80
2022/05/03 11:31:58;;;;;;;6.30;4.78;;;21.80;65.50;;;;;;5022249;28;20622;-82
2022/05/03 11:34:23;;;;;;;7.18;4.68;;;21.10;67.80;;;;;;5019636;28;20174;-81
2022/05/03 11:36:52;;;;;;;6.75;4.78;;;20.70;68.00;;;;;;5019066;28;20710;-81
2022/05/03 11:39:20;;;;;;;7.25;4.57;;;20.10;68.00;;;;;;5018505;28;20174;-79
2022/05/03 11:41:47;;;;;;;8.15;4.95;;;22.30;64.70;;;;;;5018645;28;20177;-81
2022/05/03 11:44:14;;;;;;;8.80;4.80;;;22.60;63.60;;;;;;5020804;28;20178;-82
2022/05/03 11:46:42;;;;;;;5.78;4.70;;;22.80;65.40;;;;;;5019907;28;20209;-82
2022/05/03 11:49:10;;;;;;;6.80;4.35;;;21.80;66.50;;;;;;5018322;28;20645;-80
2022/05/03 11:57:19;;;;;;;5.75;4.13;;;21.80;63.00;;;;;;5037649;28;20313;-80
2022/05/03 11:59:45;;;;;;;6.25;4.72;;;22.60;65.00;;;;;;5018610;28;20185;-81
2022/05/03 12:02:17;;;;;;;6.13;4.93;;;21.80;67.90;;;;;;5017295;28;20174;-81
2022/05/03 12:05:11;;;;;;;6.93;4.82;;;20.70;66.30;;;;;;5018870;28;20679;-83
2022/05/03 12:07:49;;;;;;;6.68;5.65;;;21.10;66.70;;;;;;5018628;28;20232;-82
2022/05/03 12:10:21;;;;;;;6.82;4.72;;;19.50;69.90;;;;;;5018090;28;20166;-81
2022/05/03 12:13:02;;;;;;;10.95;5.90;;;19.30;72.10;;;;;;5017854;28;20170;-78
2022/05/03 12:15:28;;;;;;;8.40;5.10;;;18.60;72.80;;;;;;5019455;28;20185;-80
2022/05/03 12:18:13;;;;;;;11.32;5.60;;;19.00;72.90;;;;;;5017953;28;20724;-81
2022/05/03 12:20:54;;;;;;;11.90;5.72;;;18.70;72.50;;;;;;5017753;28;20182;-79
2022/05/03 12:23:32;;;;;;;8.23;5.13;;;19.00;72.10;;;;;;5017813;28;20178;-81
2022/05/03 12:26:01;;;;;;;5.65;4.55;;;19.20;71.90;;;;;;5019867;28;20571;-82
2022/05/03 12:28:41;;;;;;;5.65;4.03;;;19.80;68.80;;;;;;5019345;28;20170;-81
2022/05/03 12:31:08;;;;;;;9.05;4.53;;;19.90;70.90;;;;;;5017036;28;20174;-81
2022/05/03 12:33:43;;;;;;;5.90;4.25;;;19.70;69.90;;;;;;5018896;28;20224;-81
2022/05/03 12:36:09;;;;;;;5.80;4.47;;;19.70;69.80;;;;;;5018157;28;20173;-79
2022/05/03 12:38:47;;;;;;;6.03;4.22;;;19.70;69.50;;;;;;5019180;28;20166;-80
2022/05/03 12:41:30;;;;;;;7.72;4.55;;;19.70;69.30;;;;;;5019296;28;20193;-81
2022/05/03 12:44:15;;;;;;;9.35;4.85;;;19.60;71.20;;;;;;5018901;28;20532;-80
2022/05/03 12:46:42;;;;;;;8.35;4.57;;;19.40;73.10;;;;;;5017978;28;20213;-79
2022/05/03 12:49:11;;;;;;;5.88;4.32;;;19.60;72.40;;;;;;5016569;28;20174;-81
2022/05/03 12:51:46;;;;;;;7.05;3.90;;;19.50;72.60;;;;;;5017390;28;20210;-81
2022/05/03 12:54:12;;;;;;;4.45;3.97;;;19.70;72.00;;;;;;5017022;28;20176;-79
2022/05/03 12:59:25;;;;;;;6.00;4.05;;;19.30;71.30;;;;;;5035099;28;20180;-81
2022/05/03 13:01:53;;;;;;;7.53;4.28;;;19.20;71.80;;;;;;5016580;28;20225;-81
2022/05/03 13:04:19;;;;;;;5.88;4.40;;;18.90;71.90;;;;;;5016638;28;20174;-82
2022/05/03 13:06:45;;;;;;;5.10;4.40;;;18.80;71.80;;;;;;5017127;28;20697;-81
2022/05/03 13:09:11;;;;;;;6.13;4.07;;;18.80;73.50;;;;;;5017724;28;20649;-82
2022/05/03 13:11:38;;;;;;;9.32;4.13;;;19.50;74.60;;;;;;5016903;28;20221;-79
2022/05/03 13:14:08;;;;;;;7.28;4.68;;;18.90;72.80;;;;;;5017192;28;20649;-81
2022/05/03 13:16:35;;;;;;;6.15;4.15;;;19.10;72.60;;;;;;5018015;28;20327;-81
2022/05/03 13:19:02;;;;;;;5.05;3.72;;;19.10;73.30;;;;;;5017644;28;20268;-80
2022/05/03 13:21:27;;;;;;;7.00;3.90;;;19.30;72.80;;;;;;5016524;28;20584;-78
2022/05/03 13:23:53;;;;;;;8.55;3.80;;;18.90;74.20;;;;;;5016855;28;20257;-80
2022/05/03 13:26:19;;;;;;;7.15;3.58;;;19.10;73.30;;;;;;5016578;28;20209;-79
2022/05/03 13:28:45;;;;;;;5.03;3.40;;;18.90;73.20;;;;;;5017331;28;20535;-79
2022/05/03 13:31:13;;;;;;;4.90;3.53;;;19.10;73.00;;;;;;5015342;28;20170;-81
2022/05/03 13:33:39;;;;;;;6.45;3.80;;;19.20;72.80;;;;;;5016515;28;20177;-83
2022/05/03 13:41:33;;;;;;;4.65;4.10;;;19.00;74.20;;;;;;5043365;28;20177;-79
2022/05/03 13:43:59;;;;;;;8.10;4.38;;;19.40;73.70;;;;;;5026016;28;20166;-81
2022/05/03 13:46:25;;;;;;;5.57;3.90;;;19.30;76.10;;;;;;5020537;28;20241;-81
2022/05/03 13:48:50;;;;;;;6.40;4.18;;;19.60;74.90;;;;;;5015783;28;20182;-81
2022/05/03 13:51:17;;;;;;;6.30;3.90;;;19.40;75.20;;;;;;5015650;28;20193;-80
2022/05/03 13:53:43;;;;;;;5.68;4.15;;;19.40;74.40;;;;;;5016276;28;20646;-81
2022/05/03 13:56:09;;;;;;;4.82;4.35;;;19.10;76.10;;;;;;5016947;28;20549;-79
2022/05/03 13:58:35;;;;;;;7.78;4.97;;;19.40;75.50;;;;;;5017192;28;20173;-81